sensor_id;sensor_type;location;lat;lon;timestamp;temperature;humidity
64143;DHT22;50437;51.970;5.904;2022-12-24T00:00:58;9.80;99.90
64143;DHT22;50437;51.970;5.904;2022-12-24T00:03:26;9.70;99.90
64143;DHT22;50437;51.970;5.904;2022-12-24T00:06:03;9.80;99.90
64143;DHT22;50437;51.970;5.904;2022-12-24T00:08:32;9.70;99.90
64143;DHT22;50437;51.970;5.904;2022-12-24T00:11:01;9.70;99.90
64143;DHT22;50437;51.970;5.904;2022-12-24T00:13:27;9.70;99.90
64143;DHT22;50437;51.970;5.904;2022-12-24T00:15:53;9.70;99.90
64143;DHT22;50437;51.970;5.904;2022-12-24T00:18:20;9.60;99.90
64143;DHT22;50437;51.970;5.904;2022-12-24T00:20:53;9.70;99.90
64143;DHT22;50437;51.970;5.904;2022-12-24T00:23:24;9.70;99.90
64143;DHT22;50437;51.970;5.904;2022-12-24T00:25:53;9.70;99.90
64143;DHT22;50437;51.970;5.904;2022-12-24T00:28:30;9.70;99.90
64143;DHT22;50437;51.970;5.904;2022-12-24T00:30:59;9.70;99.90
64143;DHT22;50437;51.970;5.904;2022-12-24T00:33:31;9.70;99.90
64143;DHT22;50437;51.970;5.904;2022-12-24T00:36:00;9.60;99.90
64143;DHT22;50437;51.970;5.904;2022-12-24T00:38:34;9.70;99.90
64143;DHT22;50437;51.970;5.904;2022-12-24T00:41:03;9.70;99.90
64143;DHT22;50437;51.970;5.904;2022-12-24T00:43:30;9.60;99.90
64143;DHT22;50437;51.970;5.904;2022-12-24T00:45:58;9.60;99.90
64143;DHT22;50437;51.970;5.904;2022-12-24T00:48:27;9.60;99.90
64143;DHT22;50437;51.970;5.904;2022-12-24T00:50:55;9.70;99.90
64143;DHT22;50437;51.970;5.904;2022-12-24T00:53:31;9.60;99.90
64143;DHT22;50437;51.970;5.904;2022-12-24T00:56:05;9.60;99.90
64143;DHT22;50437;51.970;5.904;2022-12-24T00:58:31;9.60;99.90
64143;DHT22;50437;51.970;5.904;2022-12-24T01:01:02;9.60;99.90
64143;DHT22;50437;51.970;5.904;2022-12-24T01:03:29;9.60;99.90
64143;DHT22;50437;51.970;5.904;2022-12-24T01:06:05;9.60;99.90
64143;DHT22;50437;51.970;5.904;2022-12-24T01:08:34;9.70;99.90
64143;DHT22;50437;51.970;5.904;2022-12-24T01:11:06;9.60;99.90
64143;DHT22;50437;51.970;5.904;2022-12-24T01:13:42;9.60;99.90
64143;DHT22;50437;51.970;5.904;2022-12-24T01:16:19;9.60;99.90
64143;DHT22;50437;51.970;5.904;2022-12-24T01:18:53;9.60;99.90
64143;DHT22;50437;51.970;5.904;2022-12-24T01:21:19;9.60;99.90
64143;DHT22;50437;51.970;5.904;2022-12-24T01:23:47;9.50;99.90
64143;DHT22;50437;51.970;5.904;2022-12-24T01:26:13;9.50;99.90
64143;DHT22;50437;51.970;5.904;2022-12-24T01:28:43;9.50;99.90
64143;DHT22;50437;51.970;5.904;2022-12-24T01:31:12;9.50;99.90
64143;DHT22;50437;51.970;5.904;2022-12-24T01:33:42;9.50;99.90
64143;DHT22;50437;51.970;5.904;2022-12-24T01:36:10;9.50;99.90
64143;DHT22;50437;51.970;5.904;2022-12-24T01:38:37;9.50;99.90
64143;DHT22;50437;51.970;5.904;2022-12-24T01:41:14;9.40;99.90
64143;DHT22;50437;51.970;5.904;2022-12-24T01:46:47;9.40;99.90
64143;DHT22;50437;51.970;5.904;2022-12-24T01:49:14;9.40;99.90
64143;DHT22;50437;51.970;5.904;2022-12-24T01:51:45;9.40;99.90
64143;DHT22;50437;51.970;5.904;2022-12-24T01:54:19;9.40;99.90
64143;DHT22;50437;51.970;5.904;2022-12-24T01:56:48;9.30;99.90
64143;DHT22;50437;51.970;5.904;2022-12-24T01:59:16;9.30;99.90
64143;DHT22;50437;51.970;5.904;2022-12-24T02:01:46;9.20;99.90
64143;DHT22;50437;51.970;5.904;2022-12-24T02:06:57;9.20;99.90
64143;DHT22;50437;51.970;5.904;2022-12-24T02:09:28;9.00;99.90
64143;DHT22;50437;51.970;5.904;2022-12-24T02:11:54;9.00;99.90
64143;DHT22;50437;51.970;5.904;2022-12-24T02:14:23;9.00;99.90
64143;DHT22;50437;51.970;5.904;2022-12-24T02:17:07;9.00;99.90
64143;DHT22;50437;51.970;5.904;2022-12-24T02:19:42;8.90;99.90
64143;DHT22;50437;51.970;5.904;2022-12-24T02:25:09;8.90;99.90
64143;DHT22;50437;51.970;5.904;2022-12-24T02:27:44;8.80;99.90
64143;DHT22;50437;51.970;5.904;2022-12-24T02:30:13;8.70;99.90
64143;DHT22;50437;51.970;5.904;2022-12-24T02:32:45;8.70;99.90
64143;DHT22;50437;51.970;5.904;2022-12-24T02:35:15;8.60;99.90
64143;DHT22;50437;51.970;5.904;2022-12-24T02:37:46;8.50;99.90
64143;DHT22;50437;51.970;5.904;2022-12-24T02:40:15;8.50;99.90
64143;DHT22;50437;51.970;5.904;2022-12-24T02:42:47;8.50;99.90
64143;DHT22;50437;51.970;5.904;2022-12-24T02:45:21;8.40;99.90
64143;DHT22;50437;51.970;5.904;2022-12-24T02:47:50;8.40;99.90
64143;DHT22;50437;51.970;5.904;2022-12-24T02:50:17;8.40;99.90
64143;DHT22;50437;51.970;5.904;2022-12-24T02:52:44;8.30;99.90
64143;DHT22;50437;51.970;5.904;2022-12-24T02:55:11;8.30;99.90
64143;DHT22;50437;51.970;5.904;2022-12-24T02:57:49;8.30;99.90
64143;DHT22;50437;51.970;5.904;2022-12-24T03:00:19;8.30;99.90
64143;DHT22;50437;51.970;5.904;2022-12-24T03:05:20;8.20;99.90
64143;DHT22;50437;51.970;5.904;2022-12-24T03:10:26;8.20;99.90
64143;DHT22;50437;51.970;5.904;2022-12-24T03:12:54;8.20;99.90
64143;DHT22;50437;51.970;5.904;2022-12-24T03:15:22;8.20;99.90
64143;DHT22;50437;51.970;5.904;2022-12-24T03:17:49;8.20;99.90
64143;DHT22;50437;51.970;5.904;2022-12-24T03:20:18;8.20;99.90
64143;DHT22;50437;51.970;5.904;2022-12-24T03:22:44;8.30;99.90
64143;DHT22;50437;51.970;5.904;2022-12-24T03:25:11;8.30;99.90
64143;DHT22;50437;51.970;5.904;2022-12-24T03:27:37;8.20;99.90
64143;DHT22;50437;51.970;5.904;2022-12-24T03:30:03;8.20;99.90
64143;DHT22;50437;51.970;5.904;2022-12-24T03:32:32;8.20;99.90
64143;DHT22;50437;51.970;5.904;2022-12-24T03:34:58;8.10;99.90
64143;DHT22;50437;51.970;5.904;2022-12-24T03:37:25;8.20;99.90
64143;DHT22;50437;51.970;5.904;2022-12-24T03:39:51;8.10;99.90
64143;DHT22;50437;51.970;5.904;2022-12-24T03:42:18;8.10;99.90
64143;DHT22;50437;51.970;5.904;2022-12-24T03:44:44;8.20;99.90
64143;DHT22;50437;51.970;5.904;2022-12-24T03:47:11;8.20;99.90
64143;DHT22;50437;51.970;5.904;2022-12-24T03:49:37;8.30;99.90
64143;DHT22;50437;51.970;5.904;2022-12-24T03:52:03;8.30;99.90
64143;DHT22;50437;51.970;5.904;2022-12-24T03:54:32;8.40;99.90
64143;DHT22;50437;51.970;5.904;2022-12-24T03:56:58;8.50;99.90
64143;DHT22;50437;51.970;5.904;2022-12-24T03:59:24;8.50;99.90
64143;DHT22;50437;51.970;5.904;2022-12-24T04:01:50;8.60;99.90
64143;DHT22;50437;51.970;5.904;2022-12-24T04:04:16;8.50;99.90
64143;DHT22;50437;51.970;5.904;2022-12-24T04:06:42;8.60;99.90
64143;DHT22;50437;51.970;5.904;2022-12-24T04:09:08;8.60;99.90
64143;DHT22;50437;51.970;5.904;2022-12-24T04:11:34;8.60;99.90
64143;DHT22;50437;51.970;5.904;2022-12-24T04:14:00;8.70;99.90
64143;DHT22;50437;51.970;5.904;2022-12-24T04:16:25;8.70;99.90
64143;DHT22;50437;51.970;5.904;2022-12-24T04:18:52;8.80;99.90
64143;DHT22;50437;51.970;5.904;2022-12-24T04:21:18;8.80;99.90
64143;DHT22;50437;51.970;5.904;2022-12-24T04:23:44;8.80;99.90
64143;DHT22;50437;51.970;5.904;2022-12-24T04:26:11;8.90;99.90
64143;DHT22;50437;51.970;5.904;2022-12-24T04:28:37;9.10;99.90
64143;DHT22;50437;51.970;5.904;2022-12-24T04:31:05;8.90;99.90
64143;DHT22;50437;51.970;5.904;2022-12-24T04:33:31;9.00;99.90
64143;DHT22;50437;51.970;5.904;2022-12-24T04:35:58;9.10;99.90
64143;DHT22;50437;51.970;5.904;2022-12-24T04:38:26;9.10;99.90
64143;DHT22;50437;51.970;5.904;2022-12-24T04:40:59;9.20;99.90
64143;DHT22;50437;51.970;5.904;2022-12-24T04:43:25;9.20;99.90
64143;DHT22;50437;51.970;5.904;2022-12-24T04:45:51;9.20;99.90
64143;DHT22;50437;51.970;5.904;2022-12-24T04:48:17;9.30;99.90
64143;DHT22;50437;51.970;5.904;2022-12-24T04:50:43;9.30;99.90
64143;DHT22;50437;51.970;5.904;2022-12-24T04:53:09;9.30;99.90
64143;DHT22;50437;51.970;5.904;2022-12-24T04:55:35;9.40;99.90
64143;DHT22;50437;51.970;5.904;2022-12-24T04:58:01;9.40;99.90
64143;DHT22;50437;51.970;5.904;2022-12-24T05:00:30;9.40;99.90
64143;DHT22;50437;51.970;5.904;2022-12-24T05:02:56;9.40;99.90
64143;DHT22;50437;51.970;5.904;2022-12-24T05:05:22;9.50;99.90
64143;DHT22;50437;51.970;5.904;2022-12-24T05:07:48;9.50;99.90
64143;DHT22;50437;51.970;5.904;2022-12-24T05:10:14;9.50;99.90
64143;DHT22;50437;51.970;5.904;2022-12-24T05:12:40;9.50;99.90
64143;DHT22;50437;51.970;5.904;2022-12-24T05:15:08;9.50;99.90
64143;DHT22;50437;51.970;5.904;2022-12-24T05:17:34;9.60;99.90
64143;DHT22;50437;51.970;5.904;2022-12-24T05:20:00;9.50;99.90
64143;DHT22;50437;51.970;5.904;2022-12-24T05:22:26;9.50;99.90
64143;DHT22;50437;51.970;5.904;2022-12-24T05:25:11;9.50;99.90
64143;DHT22;50437;51.970;5.904;2022-12-24T05:27:56;9.50;99.90
64143;DHT22;50437;51.970;5.904;2022-12-24T05:30:22;9.50;99.90
64143;DHT22;50437;51.970;5.904;2022-12-24T05:32:48;9.50;99.90
64143;DHT22;50437;51.970;5.904;2022-12-24T05:35:13;9.50;99.90
64143;DHT22;50437;51.970;5.904;2022-12-24T05:37:39;9.50;99.90
64143;DHT22;50437;51.970;5.904;2022-12-24T05:40:06;9.50;99.90
64143;DHT22;50437;51.970;5.904;2022-12-24T05:42:32;9.50;99.90
64143;DHT22;50437;51.970;5.904;2022-12-24T05:44:58;9.50;99.90
64143;DHT22;50437;51.970;5.904;2022-12-24T05:47:24;9.50;99.90
64143;DHT22;50437;51.970;5.904;2022-12-24T05:49:50;9.60;99.90
64143;DHT22;50437;51.970;5.904;2022-12-24T05:52:16;9.50;99.90
64143;DHT22;50437;51.970;5.904;2022-12-24T05:54:41;9.60;99.90
64143;DHT22;50437;51.970;5.904;2022-12-24T05:57:07;9.60;99.90
64143;DHT22;50437;51.970;5.904;2022-12-24T05:59:33;9.60;99.90
64143;DHT22;50437;51.970;5.904;2022-12-24T06:02:00;9.70;99.90
64143;DHT22;50437;51.970;5.904;2022-12-24T06:04:26;9.70;99.90
64143;DHT22;50437;51.970;5.904;2022-12-24T06:06:52;9.60;99.90
64143;DHT22;50437;51.970;5.904;2022-12-24T06:09:20;9.60;99.90
64143;DHT22;50437;51.970;5.904;2022-12-24T06:11:46;9.60;99.90
64143;DHT22;50437;51.970;5.904;2022-12-24T06:14:12;9.70;99.90
64143;DHT22;50437;51.970;5.904;2022-12-24T06:16:38;9.60;99.90
64143;DHT22;50437;51.970;5.904;2022-12-24T06:19:04;9.80;99.90
64143;DHT22;50437;51.970;5.904;2022-12-24T06:21:30;9.70;99.90
64143;DHT22;50437;51.970;5.904;2022-12-24T06:23:56;9.70;99.90
64143;DHT22;50437;51.970;5.904;2022-12-24T06:26:22;9.70;99.90
64143;DHT22;50437;51.970;5.904;2022-12-24T06:28:49;9.70;99.90
64143;DHT22;50437;51.970;5.904;2022-12-24T06:31:16;9.70;99.90
64143;DHT22;50437;51.970;5.904;2022-12-24T06:33:42;9.70;99.90
64143;DHT22;50437;51.970;5.904;2022-12-24T06:36:10;9.70;99.90
64143;DHT22;50437;51.970;5.904;2022-12-24T06:38:38;9.70;99.90
64143;DHT22;50437;51.970;5.904;2022-12-24T06:41:04;9.70;99.90
64143;DHT22;50437;51.970;5.904;2022-12-24T06:43:31;9.70;99.90
64143;DHT22;50437;51.970;5.904;2022-12-24T06:45:59;9.70;99.90
64143;DHT22;50437;51.970;5.904;2022-12-24T06:48:26;9.80;99.90
64143;DHT22;50437;51.970;5.904;2022-12-24T06:50:52;9.70;99.90
64143;DHT22;50437;51.970;5.904;2022-12-24T06:53:18;9.80;99.90
64143;DHT22;50437;51.970;5.904;2022-12-24T06:55:47;9.80;99.90
64143;DHT22;50437;51.970;5.904;2022-12-24T06:58:13;9.80;99.90
64143;DHT22;50437;51.970;5.904;2022-12-24T07:00:39;9.80;99.90
64143;DHT22;50437;51.970;5.904;2022-12-24T07:03:05;9.80;99.90
64143;DHT22;50437;51.970;5.904;2022-12-24T07:05:31;9.70;99.90
64143;DHT22;50437;51.970;5.904;2022-12-24T07:07:57;9.80;99.90
64143;DHT22;50437;51.970;5.904;2022-12-24T07:10:23;9.80;99.90
64143;DHT22;50437;51.970;5.904;2022-12-24T07:12:51;9.70;99.90
64143;DHT22;50437;51.970;5.904;2022-12-24T07:15:17;9.70;99.90
64143;DHT22;50437;51.970;5.904;2022-12-24T07:17:43;9.70;99.90
64143;DHT22;50437;51.970;5.904;2022-12-24T07:20:10;9.80;99.90
64143;DHT22;50437;51.970;5.904;2022-12-24T07:22:38;9.80;99.90
64143;DHT22;50437;51.970;5.904;2022-12-24T07:25:04;9.80;99.90
64143;DHT22;50437;51.970;5.904;2022-12-24T07:27:30;9.80;99.90
64143;DHT22;50437;51.970;5.904;2022-12-24T07:29:56;9.70;99.90
64143;DHT22;50437;51.970;5.904;2022-12-24T07:32:21;9.80;99.90
64143;DHT22;50437;51.970;5.904;2022-12-24T07:34:47;9.80;99.90
64143;DHT22;50437;51.970;5.904;2022-12-24T07:37:13;9.80;99.90
64143;DHT22;50437;51.970;5.904;2022-12-24T07:39:39;9.80;99.90
64143;DHT22;50437;51.970;5.904;2022-12-24T07:42:08;9.70;99.90
64143;DHT22;50437;51.970;5.904;2022-12-24T07:44:35;9.80;99.90
64143;DHT22;50437;51.970;5.904;2022-12-24T07:47:01;9.70;99.90
64143;DHT22;50437;51.970;5.904;2022-12-24T07:49:27;9.70;99.90
64143;DHT22;50437;51.970;5.904;2022-12-24T07:51:53;9.80;99.90
64143;DHT22;50437;51.970;5.904;2022-12-24T07:54:19;9.70;99.90
64143;DHT22;50437;51.970;5.904;2022-12-24T07:56:45;9.80;99.90
64143;DHT22;50437;51.970;5.904;2022-12-24T07:59:11;9.70;99.90
64143;DHT22;50437;51.970;5.904;2022-12-24T08:01:37;9.80;99.90
64143;DHT22;50437;51.970;5.904;2022-12-24T08:04:04;9.80;99.90
64143;DHT22;50437;51.970;5.904;2022-12-24T08:06:30;9.80;99.90
64143;DHT22;50437;51.970;5.904;2022-12-24T08:08:56;9.70;99.90
64143;DHT22;50437;51.970;5.904;2022-12-24T08:11:24;9.80;99.90
64143;DHT22;50437;51.970;5.904;2022-12-24T08:13:50;9.80;99.90
64143;DHT22;50437;51.970;5.904;2022-12-24T08:16:16;9.80;99.90
64143;DHT22;50437;51.970;5.904;2022-12-24T08:18:42;9.80;99.90
64143;DHT22;50437;51.970;5.904;2022-12-24T08:21:10;9.80;99.90
64143;DHT22;50437;51.970;5.904;2022-12-24T08:23:36;9.80;99.90
64143;DHT22;50437;51.970;5.904;2022-12-24T08:26:02;9.90;99.90
64143;DHT22;50437;51.970;5.904;2022-12-24T08:28:30;9.90;99.90
64143;DHT22;50437;51.970;5.904;2022-12-24T08:30:56;9.80;99.90
64143;DHT22;50437;51.970;5.904;2022-12-24T08:33:23;9.80;99.90
64143;DHT22;50437;51.970;5.904;2022-12-24T08:35:53;9.80;99.90
64143;DHT22;50437;51.970;5.904;2022-12-24T08:38:19;9.80;99.90
64143;DHT22;50437;51.970;5.904;2022-12-24T08:40:46;9.80;99.90
64143;DHT22;50437;51.970;5.904;2022-12-24T08:43:15;9.90;99.90
64143;DHT22;50437;51.970;5.904;2022-12-24T08:45:41;9.90;99.90
64143;DHT22;50437;51.970;5.904;2022-12-24T08:48:19;9.90;99.90
64143;DHT22;50437;51.970;5.904;2022-12-24T08:50:46;9.90;99.90
64143;DHT22;50437;51.970;5.904;2022-12-24T08:53:12;9.90;99.90
64143;DHT22;50437;51.970;5.904;2022-12-24T08:55:40;9.90;99.90
64143;DHT22;50437;51.970;5.904;2022-12-24T08:58:07;10.00;99.90
64143;DHT22;50437;51.970;5.904;2022-12-24T09:00:32;9.90;99.90
64143;DHT22;50437;51.970;5.904;2022-12-24T09:02:59;10.00;99.90
64143;DHT22;50437;51.970;5.904;2022-12-24T09:05:25;10.00;99.90
64143;DHT22;50437;51.970;5.904;2022-12-24T09:07:51;10.00;99.90
64143;DHT22;50437;51.970;5.904;2022-12-24T09:10:19;10.00;99.90
64143;DHT22;50437;51.970;5.904;2022-12-24T09:12:45;10.10;99.90
64143;DHT22;50437;51.970;5.904;2022-12-24T09:15:11;10.10;99.90
64143;DHT22;50437;51.970;5.904;2022-12-24T09:17:39;10.20;99.90
64143;DHT22;50437;51.970;5.904;2022-12-24T09:20:05;10.10;99.90
64143;DHT22;50437;51.970;5.904;2022-12-24T09:22:35;10.20;99.90
64143;DHT22;50437;51.970;5.904;2022-12-24T09:25:01;10.20;99.90
64143;DHT22;50437;51.970;5.904;2022-12-24T09:27:29;10.40;99.90
64143;DHT22;50437;51.970;5.904;2022-12-24T09:29:56;10.40;99.90
64143;DHT22;50437;51.970;5.904;2022-12-24T09:32:21;10.40;99.90
64143;DHT22;50437;51.970;5.904;2022-12-24T09:34:47;10.30;99.90
64143;DHT22;50437;51.970;5.904;2022-12-24T09:37:13;10.30;99.90
64143;DHT22;50437;51.970;5.904;2022-12-24T09:39:39;10.30;99.90
64143;DHT22;50437;51.970;5.904;2022-12-24T09:47:00;10.40;99.90
64143;DHT22;50437;51.970;5.904;2022-12-24T09:49:33;10.40;99.90
64143;DHT22;50437;51.970;5.904;2022-12-24T09:52:05;10.40;99.90
64143;DHT22;50437;51.970;5.904;2022-12-24T09:54:34;10.50;99.90
64143;DHT22;50437;51.970;5.904;2022-12-24T09:57:04;10.60;99.90
64143;DHT22;50437;51.970;5.904;2022-12-24T09:59:41;10.60;99.90
64143;DHT22;50437;51.970;5.904;2022-12-24T10:02:12;10.50;99.90
64143;DHT22;50437;51.970;5.904;2022-12-24T10:04:38;10.50;99.90
64143;DHT22;50437;51.970;5.904;2022-12-24T10:07:24;10.40;99.90
64143;DHT22;50437;51.970;5.904;2022-12-24T10:15:09;10.60;99.90
64143;DHT22;50437;51.970;5.904;2022-12-24T10:22:52;10.60;99.90
64143;DHT22;50437;51.970;5.904;2022-12-24T10:25:22;10.60;99.90
64143;DHT22;50437;51.970;5.904;2022-12-24T10:27:50;10.60;99.90
64143;DHT22;50437;51.970;5.904;2022-12-24T10:30:20;10.70;99.90
64143;DHT22;50437;51.970;5.904;2022-12-24T10:32:49;10.70;99.90
64143;DHT22;50437;51.970;5.904;2022-12-24T10:35:18;10.80;99.90
64143;DHT22;50437;51.970;5.904;2022-12-24T10:37:47;10.80;99.90
64143;DHT22;50437;51.970;5.904;2022-12-24T10:43:14;11.00;99.90
64143;DHT22;50437;51.970;5.904;2022-12-24T10:45:45;11.00;99.90
64143;DHT22;50437;51.970;5.904;2022-12-24T10:48:15;11.10;99.90
64143;DHT22;50437;51.970;5.904;2022-12-24T10:53:42;11.60;99.90
64143;DHT22;50437;51.970;5.904;2022-12-24T10:56:14;11.60;99.90
64143;DHT22;50437;51.970;5.904;2022-12-24T10:59:03;11.70;99.90
64143;DHT22;50437;51.970;5.904;2022-12-24T11:01:43;11.50;99.90
64143;DHT22;50437;51.970;5.904;2022-12-24T11:04:16;11.40;99.90
64143;DHT22;50437;51.970;5.904;2022-12-24T11:06:50;11.20;99.90
64143;DHT22;50437;51.970;5.904;2022-12-24T11:09:24;11.20;99.90
64143;DHT22;50437;51.970;5.904;2022-12-24T11:11:51;11.20;99.90
64143;DHT22;50437;51.970;5.904;2022-12-24T11:14:18;11.40;99.90
64143;DHT22;50437;51.970;5.904;2022-12-24T11:16:49;11.50;99.90
64143;DHT22;50437;51.970;5.904;2022-12-24T11:19:17;11.60;99.90
64143;DHT22;50437;51.970;5.904;2022-12-24T11:21:44;11.40;99.90
64143;DHT22;50437;51.970;5.904;2022-12-24T11:26:44;11.30;99.90
64143;DHT22;50437;51.970;5.904;2022-12-24T11:29:26;11.30;99.90
64143;DHT22;50437;51.970;5.904;2022-12-24T11:32:09;11.20;99.90
64143;DHT22;50437;51.970;5.904;2022-12-24T11:34:38;11.30;99.90
64143;DHT22;50437;51.970;5.904;2022-12-24T11:37:22;11.20;99.90
64143;DHT22;50437;51.970;5.904;2022-12-24T11:39:50;11.20;99.90
64143;DHT22;50437;51.970;5.904;2022-12-24T11:42:24;11.10;99.90
64143;DHT22;50437;51.970;5.904;2022-12-24T11:44:51;11.00;99.90
64143;DHT22;50437;51.970;5.904;2022-12-24T11:47:36;11.00;99.90
64143;DHT22;50437;51.970;5.904;2022-12-24T11:58:02;11.10;99.90
64143;DHT22;50437;51.970;5.904;2022-12-24T12:00:30;11.20;99.90
64143;DHT22;50437;51.970;5.904;2022-12-24T12:02:57;11.20;99.90
64143;DHT22;50437;51.970;5.904;2022-12-24T12:05:37;11.10;99.90
64143;DHT22;50437;51.970;5.904;2022-12-24T12:08:13;11.10;99.90
64143;DHT22;50437;51.970;5.904;2022-12-24T12:10:43;11.10;99.90
64143;DHT22;50437;51.970;5.904;2022-12-24T12:13:14;11.10;99.90
64143;DHT22;50437;51.970;5.904;2022-12-24T12:15:50;11.20;99.90
64143;DHT22;50437;51.970;5.904;2022-12-24T12:18:24;11.30;99.90
64143;DHT22;50437;51.970;5.904;2022-12-24T12:21:05;11.20;99.90
64143;DHT22;50437;51.970;5.904;2022-12-24T12:23:33;11.10;99.90
64143;DHT22;50437;51.970;5.904;2022-12-24T12:26:09;11.10;99.90
64143;DHT22;50437;51.970;5.904;2022-12-24T12:28:47;10.90;99.90
64143;DHT22;50437;51.970;5.904;2022-12-24T12:31:33;10.90;99.90
64143;DHT22;50437;51.970;5.904;2022-12-24T12:36:33;10.90;99.90
64143;DHT22;50437;51.970;5.904;2022-12-24T12:39:01;10.90;99.90
64143;DHT22;50437;51.970;5.904;2022-12-24T12:44:24;10.70;99.90
64143;DHT22;50437;51.970;5.904;2022-12-24T12:47:00;10.70;99.90
64143;DHT22;50437;51.970;5.904;2022-12-24T12:52:03;10.60;99.90
64143;DHT22;50437;51.970;5.904;2022-12-24T12:57:23;10.60;99.90
64143;DHT22;50437;51.970;5.904;2022-12-24T12:59:55;10.60;99.90
64143;DHT22;50437;51.970;5.904;2022-12-24T13:07:44;10.70;99.90
64143;DHT22;50437;51.970;5.904;2022-12-24T13:13:10;10.90;99.90
64143;DHT22;50437;51.970;5.904;2022-12-24T13:21:04;10.80;99.90
64143;DHT22;50437;51.970;5.904;2022-12-24T13:23:40;10.70;99.90
64143;DHT22;50437;51.970;5.904;2022-12-24T13:26:09;10.50;99.90
64143;DHT22;50437;51.970;5.904;2022-12-24T13:28:36;10.50;99.90
64143;DHT22;50437;51.970;5.904;2022-12-24T13:31:22;10.40;99.90
64143;DHT22;50437;51.970;5.904;2022-12-24T13:33:54;10.40;99.90
64143;DHT22;50437;51.970;5.904;2022-12-24T13:36:22;10.50;99.90
64143;DHT22;50437;51.970;5.904;2022-12-24T13:38:56;10.50;99.90
64143;DHT22;50437;51.970;5.904;2022-12-24T13:49:27;10.50;99.90
64143;DHT22;50437;51.970;5.904;2022-12-24T14:02:38;10.20;99.90
64143;DHT22;50437;51.970;5.904;2022-12-24T14:05:16;10.20;99.90
64143;DHT22;50437;51.970;5.904;2022-12-24T14:07:47;10.10;99.90
64143;DHT22;50437;51.970;5.904;2022-12-24T14:10:21;10.10;99.90
64143;DHT22;50437;51.970;5.904;2022-12-24T14:12:48;10.00;99.90
64143;DHT22;50437;51.970;5.904;2022-12-24T14:18:00;9.90;99.90
64143;DHT22;50437;51.970;5.904;2022-12-24T14:20:26;9.90;99.90
64143;DHT22;50437;51.970;5.904;2022-12-24T14:22:52;9.90;99.90
64143;DHT22;50437;51.970;5.904;2022-12-24T14:25:19;9.80;99.90
64143;DHT22;50437;51.970;5.904;2022-12-24T14:28:12;9.70;99.90
64143;DHT22;50437;51.970;5.904;2022-12-24T14:30:35;9.80;99.90
64143;DHT22;50437;51.970;5.904;2022-12-24T14:33:01;9.90;99.90
64143;DHT22;50437;51.970;5.904;2022-12-24T14:35:28;9.90;99.90
64143;DHT22;50437;51.970;5.904;2022-12-24T14:38:05;9.90;99.90
64143;DHT22;50437;51.970;5.904;2022-12-24T14:40:37;9.90;99.90
64143;DHT22;50437;51.970;5.904;2022-12-24T14:45:39;9.90;99.90
64143;DHT22;50437;51.970;5.904;2022-12-24T14:56:14;9.80;99.90
64143;DHT22;50437;51.970;5.904;2022-12-24T14:58:44;9.70;99.90
64143;DHT22;50437;51.970;5.904;2022-12-24T15:06:56;9.60;99.90
64143;DHT22;50437;51.970;5.904;2022-12-24T15:09:23;9.50;99.90
64143;DHT22;50437;51.970;5.904;2022-12-24T15:11:50;9.40;99.90
64143;DHT22;50437;51.970;5.904;2022-12-24T15:17:02;9.40;99.90
64143;DHT22;50437;51.970;5.904;2022-12-24T15:19:38;9.30;99.90
64143;DHT22;50437;51.970;5.904;2022-12-24T15:22:22;9.30;99.90
64143;DHT22;50437;51.970;5.904;2022-12-24T15:24:51;9.20;99.90
64143;DHT22;50437;51.970;5.904;2022-12-24T15:27:19;9.20;99.90
64143;DHT22;50437;51.970;5.904;2022-12-24T15:29:56;9.10;99.90
64143;DHT22;50437;51.970;5.904;2022-12-24T15:32:22;9.00;99.90
64143;DHT22;50437;51.970;5.904;2022-12-24T15:34:53;8.90;99.90
64143;DHT22;50437;51.970;5.904;2022-12-24T15:37:25;8.80;99.90
64143;DHT22;50437;51.970;5.904;2022-12-24T15:43:06;8.70;99.90
64143;DHT22;50437;51.970;5.904;2022-12-24T15:45:38;8.70;99.90
64143;DHT22;50437;51.970;5.904;2022-12-24T15:48:08;8.60;99.90
64143;DHT22;50437;51.970;5.904;2022-12-24T15:50:37;8.60;99.90
64143;DHT22;50437;51.970;5.904;2022-12-24T15:53:14;8.50;99.90
64143;DHT22;50437;51.970;5.904;2022-12-24T15:58:26;8.40;99.90
64143;DHT22;50437;51.970;5.904;2022-12-24T16:01:00;8.30;99.90
64143;DHT22;50437;51.970;5.904;2022-12-24T16:03:26;8.40;99.90
64143;DHT22;50437;51.970;5.904;2022-12-24T16:06:08;8.30;99.90
64143;DHT22;50437;51.970;5.904;2022-12-24T16:08:36;8.30;99.90
64143;DHT22;50437;51.970;5.904;2022-12-24T16:11:20;8.20;99.90
64143;DHT22;50437;51.970;5.904;2022-12-24T16:16:17;8.10;99.90
64143;DHT22;50437;51.970;5.904;2022-12-24T16:18:55;8.00;99.90
64143;DHT22;50437;51.970;5.904;2022-12-24T16:21:27;8.00;99.90
64143;DHT22;50437;51.970;5.904;2022-12-24T16:24:01;8.00;99.90
64143;DHT22;50437;51.970;5.904;2022-12-24T16:26:34;7.90;99.90
64143;DHT22;50437;51.970;5.904;2022-12-24T16:29:11;7.80;99.90
64143;DHT22;50437;51.970;5.904;2022-12-24T16:31:45;7.80;99.90
64143;DHT22;50437;51.970;5.904;2022-12-24T16:34:18;7.80;99.90
64143;DHT22;50437;51.970;5.904;2022-12-24T16:36:48;7.80;99.90
64143;DHT22;50437;51.970;5.904;2022-12-24T16:39:23;7.80;99.90
64143;DHT22;50437;51.970;5.904;2022-12-24T16:45:26;7.70;99.90
64143;DHT22;50437;51.970;5.904;2022-12-24T16:48:02;7.60;99.90
64143;DHT22;50437;51.970;5.904;2022-12-24T16:50:30;7.60;99.90
64143;DHT22;50437;51.970;5.904;2022-12-24T16:53:02;7.60;99.90
64143;DHT22;50437;51.970;5.904;2022-12-24T16:55:32;7.60;99.90
64143;DHT22;50437;51.970;5.904;2022-12-24T16:58:01;7.40;99.90
64143;DHT22;50437;51.970;5.904;2022-12-24T17:00:30;7.50;99.90
64143;DHT22;50437;51.970;5.904;2022-12-24T17:02:56;7.30;99.90
64143;DHT22;50437;51.970;5.904;2022-12-24T17:05:22;7.30;99.90
64143;DHT22;50437;51.970;5.904;2022-12-24T17:07:49;7.20;99.90
64143;DHT22;50437;51.970;5.904;2022-12-24T17:10:29;7.10;99.90
64143;DHT22;50437;51.970;5.904;2022-12-24T17:13:00;7.10;99.90
64143;DHT22;50437;51.970;5.904;2022-12-24T17:15:27;7.00;99.90
64143;DHT22;50437;51.970;5.904;2022-12-24T17:18:00;6.90;99.90
64143;DHT22;50437;51.970;5.904;2022-12-24T17:20:28;6.90;99.90
64143;DHT22;50437;51.970;5.904;2022-12-24T17:22:55;6.90;99.90
64143;DHT22;50437;51.970;5.904;2022-12-24T17:25:21;6.80;99.90
64143;DHT22;50437;51.970;5.904;2022-12-24T17:27:51;6.80;99.90
64143;DHT22;50437;51.970;5.904;2022-12-24T17:30:19;6.70;99.90
64143;DHT22;50437;51.970;5.904;2022-12-24T17:32:47;6.80;99.90
64143;DHT22;50437;51.970;5.904;2022-12-24T17:35:13;6.70;99.90
64143;DHT22;50437;51.970;5.904;2022-12-24T17:37:46;6.60;99.90
64143;DHT22;50437;51.970;5.904;2022-12-24T17:40:12;6.60;99.90
64143;DHT22;50437;51.970;5.904;2022-12-24T17:42:41;6.60;99.90
64143;DHT22;50437;51.970;5.904;2022-12-24T17:45:24;6.60;99.90
64143;DHT22;50437;51.970;5.904;2022-12-24T17:48:00;6.50;99.90
64143;DHT22;50437;51.970;5.904;2022-12-24T17:50:26;6.50;99.90
64143;DHT22;50437;51.970;5.904;2022-12-24T17:52:52;6.50;99.90
64143;DHT22;50437;51.970;5.904;2022-12-24T17:55:41;6.50;99.90
64143;DHT22;50437;51.970;5.904;2022-12-24T17:58:10;6.50;99.90